Time;durP1;ratioP1;P1;durP2;ratioP2;P2;SDS_P1;SDS_P2;PMS_P1;PMS_P2;Temp;Humidity;BMP_temperature;BMP_pressure;BME280_temperature;BME280_humidity;BME280_pressure;Samples;Min_cycle;Max_cycle;Signal;HPM_P1;HPM_P2
2022/09/06 00:00:41;;;;;;;;;;;;;;;14.98;100.00;98802.43;1741271;81;24582;-87
2022/09/06 00:03:07;;;;;;;;;;;;;;;14.89;100.00;98800.52;1734877;81;20350;-87
2022/09/06 00:05:37;;;;;;;;;;;;;;;14.67;100.00;98796.67;1742151;81;24846;-87
2022/09/06 00:08:04;;;;;;;;;;;;;;;14.49;100.00;98805.56;1738067;81;22701;-87
2022/09/06 00:10:31;;;;;;;;;;;;;;;14.32;100.00;98803.39;1720794;81;26207;-87
2022/09/06 00:13:04;;;;;;;;;;;;;;;14.26;100.00;98805.19;1743741;81;24434;-87
2022/09/06 00:15:33;;;;;;;;;;;;;;;14.21;100.00;98795.50;1722704;82;20251;-87
2022/09/06 00:18:01;;;;;;;;;;;;;;;14.32;100.00;98802.08;1727652;83;24892;-87
2022/09/06 00:20:28;;;;;;;;;;;;;;;14.42;100.00;98792.99;1741626;81;22091;-87
2022/09/06 00:23:00;;;;;;;;;;;;;;;14.43;100.00;98792.88;1726029;81;26011;-87
2022/09/06 00:25:28;;;;;;;;;;;;;;;14.46;100.00;98796.57;1727342;81;24390;-87
2022/09/06 00:28:01;;;;;;;;;;;;;;;14.43;100.00;98799.94;1724345;81;20232;-87
2022/09/06 00:30:29;;;;;;;;;;;;;;;14.50;100.00;98799.34;1728634;81;24763;-86
2022/09/06 00:32:59;;;;;;;;;;;;;;;14.50;100.00;98801.97;1739075;81;22050;-86
2022/09/06 00:35:25;;;;;;;;;;;;;;;14.50;100.00;98798.02;1745253;80;25923;-85
2022/09/06 00:37:53;;;;;;;;;;;;;;;14.53;100.00;98803.50;1723170;83;24394;-86
2022/09/06 00:40:19;;;;;;;;;;;;;;;14.47;100.00;98806.63;1745182;80;20386;-86
2022/09/06 00:42:45;;;;;;;;;;;;;;;14.23;100.00;98808.92;1745692;80;20880;-86
2022/09/06 00:45:12;;;;;;;;;;;;;;;14.02;100.00;98803.19;1745742;81;20253;-86
2022/09/06 00:47:39;;;;;;;;;;;;;;;14.07;100.00;98804.98;1745961;80;25982;-86
2022/09/06 00:50:06;;;;;;;;;;;;;;;14.20;100.00;98804.35;1745928;81;37864;-86
2022/09/06 00:52:33;;;;;;;;;;;;;;;14.29;100.00;98803.65;1745297;80;20367;-86
2022/09/06 00:55:00;;;;;;;;;;;;;;;14.29;100.00;98802.33;1745405;81;24895;-86
2022/09/06 00:57:35;;;;;;;;;;;;;;;14.27;100.00;98804.23;1720459;80;21939;-86
2022/09/06 01:00:01;;;;;;;;;;;;;;;14.18;100.00;98801.83;1743505;81;26080;-86
2022/09/06 01:02:27;;;;;;;;;;;;;;;14.02;100.00;98797.41;1745525;82;24604;-86
2022/09/06 01:04:54;;;;;;;;;;;;;;;13.99;100.00;98804.24;1745682;80;20220;-86
2022/09/06 01:10:17;;;;;;;;;;;;;;;13.92;100.00;98802.20;1735369;81;22078;-87
2022/09/06 01:13:08;;;;;;;;;;;;;;;13.88;100.00;98809.50;1745513;81;26062;-87
2022/09/06 01:15:36;;;;;;;;;;;;;;;14.01;100.00;98813.34;1741865;82;24463;-87
2022/09/06 01:18:12;;;;;;;;;;;;;;;14.03;100.00;98814.88;1734490;81;20268;-87
2022/09/06 01:20:46;;;;;;;;;;;;;;;13.93;100.00;98813.92;1733918;81;25592;-86
2022/09/06 01:23:23;;;;;;;;;;;;;;;13.92;100.00;98809.61;1735417;81;22041;-86
2022/09/06 01:28:38;;;;;;;;;;;;;;;13.77;100.00;98809.02;1734350;81;24444;-86
2022/09/06 01:31:05;;;;;;;;;;;;;;;13.69;100.00;98808.75;1735037;82;20279;-87
2022/09/06 01:33:43;;;;;;;;;;;;;;;13.71;100.00;98804.70;1731522;81;24726;-87
2022/09/06 01:36:11;;;;;;;;;;;;;;;13.83;100.00;98801.97;1732903;81;22089;-87
2022/09/06 01:38:38;;;;;;;;;;;;;;;13.86;100.00;98795.62;1709872;81;26084;-85
2022/09/06 01:41:04;;;;;;;;;;;;;;;13.83;100.00;98798.50;1733307;81;24622;-86
2022/09/06 01:43:36;;;;;;;;;;;;;;;13.79;100.00;98802.33;1709956;82;20283;-87
2022/09/06 01:46:22;;;;;;;;;;;;;;;13.70;100.00;98799.91;1733943;81;24672;-87
2022/09/06 01:48:51;;;;;;;;;;;;;;;13.75;100.00;98792.50;1733961;81;21943;-87
2022/09/06 01:51:24;;;;;;;;;;;;;;;13.78;100.00;98803.28;1733806;81;26675;-87
2022/09/06 01:53:52;;;;;;;;;;;;;;;13.77;100.00;98805.55;1734790;81;24580;-87
2022/09/06 01:56:23;;;;;;;;;;;;;;;13.85;100.00;98798.39;1733335;81;20715;-87
2022/09/06 01:59:09;;;;;;;;;;;;;;;13.70;100.00;98793.81;1735028;81;25311;-87
2022/09/06 02:01:54;;;;;;;;;;;;;;;13.61;100.00;98790.58;1733433;81;21957;-87
2022/09/06 02:04:24;;;;;;;;;;;;;;;13.54;100.00;98789.36;1734861;81;25990;-87
2022/09/06 02:07:03;;;;;;;;;;;;;;;13.50;100.00;98795.81;1734669;81;25230;-87
2022/09/06 02:09:32;;;;;;;;;;;;;;;13.49;100.00;98796.29;1733489;81;20311;-87
2022/09/06 02:12:01;;;;;;;;;;;;;;;13.55;100.00;98789.25;1734746;81;24792;-87
2022/09/06 02:14:30;;;;;;;;;;;;;;;13.55;100.00;98793.20;1734732;81;21633;-87
2022/09/06 02:16:57;;;;;;;;;;;;;;;13.57;100.00;98788.67;1732234;81;25986;-87
2022/09/06 02:19:24;;;;;;;;;;;;;;;13.66;100.00;98785.33;1734511;81;24394;-87
2022/09/06 02:21:52;;;;;;;;;;;;;;;13.71;100.00;98777.92;1734871;81;20299;-87
2022/09/06 02:24:20;;;;;;;;;;;;;;;13.77;100.00;98778.77;1734782;81;24792;-87
2022/09/06 02:26:46;;;;;;;;;;;;;;;13.75;100.00;98787.72;1734672;81;21962;-87
2022/09/06 02:29:15;;;;;;;;;;;;;;;13.70;100.00;98786.76;1734887;81;25988;-87
2022/09/06 02:31:43;;;;;;;;;;;;;;;13.71;100.00;98785.80;1735283;82;25169;-87
2022/09/06 02:34:11;;;;;;;;;;;;;;;13.78;100.00;98784.39;1734688;81;20577;-87
2022/09/06 02:36:39;;;;;;;;;;;;;;;13.78;100.00;98773.86;1734633;81;24741;-85
2022/09/06 02:39:08;;;;;;;;;;;;;;;13.72;100.00;98776.13;1734898;81;22065;-87
2022/09/06 02:41:34;;;;;;;;;;;;;;;13.70;100.00;98778.87;1732921;81;26041;-87
2022/09/06 02:44:00;;;;;;;;;;;;;;;13.66;100.00;98776.59;1734455;82;24451;-86
2022/09/06 02:46:27;;;;;;;;;;;;;;;13.66;100.00;98780.55;1734842;81;20809;-87
2022/09/06 02:48:53;;;;;;;;;;;;;;;13.67;100.00;98778.28;1736784;81;24743;-87
2022/09/06 02:51:20;;;;;;;;;;;;;;;13.60;100.00;98777.91;1735234;82;20804;-87
2022/09/06 02:53:49;;;;;;;;;;;;;;;13.51;100.00;98779.09;1735114;81;26081;-87
2022/09/06 02:56:15;;;;;;;;;;;;;;;13.43;100.00;98780.98;1734996;81;24466;-86
2022/09/06 02:58:42;;;;;;;;;;;;;;;13.28;100.00;98779.04;1734830;81;20682;-86
2022/09/06 03:01:11;;;;;;;;;;;;;;;13.17;100.00;98772.91;1734931;81;24795;-86
2022/09/06 03:03:39;;;;;;;;;;;;;;;13.16;100.00;98776.48;1717695;82;20238;-88
2022/09/06 03:06:05;;;;;;;;;;;;;;;13.32;100.00;98778.32;1734964;82;21084;-87
2022/09/06 03:08:33;;;;;;;;;;;;;;;13.37;100.00;98776.18;1735108;82;24618;-87
2022/09/06 03:10:59;;;;;;;;;;;;;;;13.29;100.00;98774.63;1745405;82;20265;-87
2022/09/06 03:13:26;;;;;;;;;;;;;;;13.38;100.00;98774.76;1721368;82;24848;-86
2022/09/06 03:15:57;;;;;;;;;;;;;;;13.46;100.00;98774.19;1744866;81;21977;-87
2022/09/06 03:18:24;;;;;;;;;;;;;;;13.31;100.00;98771.41;1716324;82;26055;-87
2022/09/06 03:20:53;;;;;;;;;;;;;;;13.20;100.00;98774.82;1717816;81;24709;-87
2022/09/06 03:23:19;;;;;;;;;;;;;;;13.27;100.00;98774.73;1722807;83;20285;-87
2022/09/06 03:25:45;;;;;;;;;;;;;;;13.29;100.00;98771.52;1735583;81;24733;-87
2022/09/06 03:28:19;;;;;;;;;;;;;;;13.27;100.00;98773.41;1742890;81;22752;-87
2022/09/06 03:30:45;;;;;;;;;;;;;;;13.34;100.00;98770.69;1723155;83;26088;-87
2022/09/06 03:33:12;;;;;;;;;;;;;;;13.49;100.00;98770.47;1712999;83;24041;-87
2022/09/06 03:35:40;;;;;;;;;;;;;;;13.48;100.00;98772.73;1719802;83;20232;-87
2022/09/06 03:38:06;;;;;;;;;;;;;;;13.49;100.00;98771.78;1742743;81;24774;-87
2022/09/06 03:40:32;;;;;;;;;;;;;;;13.55;100.00;98773.95;1718146;82;22063;-87
2022/09/06 03:42:59;;;;;;;;;;;;;;;13.56;100.00;98763.32;1765851;80;21245;-87
2022/09/06 03:45:25;;;;;;;;;;;;;;;13.55;100.00;98765.59;1719798;83;25176;-87
2022/09/06 03:48:03;;;;;;;;;;;;;;;13.31;100.00;98767.47;1740755;81;20339;-87
2022/09/06 03:50:29;;;;;;;;;;;;;;;13.11;100.00;98766.29;1720789;82;24736;-87
2022/09/06 03:52:55;;;;;;;;;;;;;;;12.94;100.00;98762.29;1742106;81;22144;-87
2022/09/06 03:55:21;;;;;;;;;;;;;;;12.95;100.00;98769.70;1736749;81;21052;-87
2022/09/06 03:57:48;;;;;;;;;;;;;;;12.92;100.00;98768.16;1742307;81;24452;-87
2022/09/06 04:00:14;;;;;;;;;;;;;;;12.92;100.00;98762.90;1731712;81;20286;-87
2022/09/06 04:02:40;;;;;;;;;;;;;;;13.03;100.00;98772.61;1723178;83;24803;-87
2022/09/06 04:05:06;;;;;;;;;;;;;;;13.17;100.00;98771.59;1724181;81;22040;-87
2022/09/06 04:07:32;;;;;;;;;;;;;;;13.22;100.00;98771.61;1722637;81;26238;-87
2022/09/06 04:09:58;;;;;;;;;;;;;;;13.24;100.00;98771.51;1725343;81;20271;-87
2022/09/06 04:12:24;;;;;;;;;;;;;;;13.26;100.00;98772.20;1705706;82;20267;-87
2022/09/06 04:14:51;;;;;;;;;;;;;;;13.28;100.00;98770.31;1727028;83;24975;-87
2022/09/06 04:17:20;;;;;;;;;;;;;;;13.29;100.00;98773.31;1714531;81;22018;-87
2022/09/06 04:19:46;;;;;;;;;;;;;;;13.30;100.00;98770.58;1708121;83;21000;-87
2022/09/06 04:22:20;;;;;;;;;;;;;;;13.27;100.00;98775.20;1704359;83;24631;-87
2022/09/06 04:24:46;;;;;;;;;;;;;;;13.29;100.00;98772.00;1708413;83;20237;-87
2022/09/06 04:27:11;;;;;;;;;;;;;;;13.21;100.00;98772.56;1707636;83;20863;-87
2022/09/06 04:29:38;;;;;;;;;;;;;;;13.08;100.00;98768.32;1706168;83;22023;-87
2022/09/06 04:32:06;;;;;;;;;;;;;;;12.94;100.00;98780.68;1705052;83;26001;-87
2022/09/06 04:34:32;;;;;;;;;;;;;;;12.97;100.00;98781.78;1701377;83;24556;-87
2022/09/06 04:36:59;;;;;;;;;;;;;;;13.05;100.00;98780.36;1706878;82;20200;-87
2022/09/06 04:39:31;;;;;;;;;;;;;;;13.04;100.00;98785.27;1705811;83;24851;-87
2022/09/06 04:41:58;;;;;;;;;;;;;;;13.03;100.00;98773.92;1700993;83;21976;-87
2022/09/06 04:44:24;;;;;;;;;;;;;;;13.13;100.00;98778.05;1707048;83;25968;-87
2022/09/06 04:46:52;;;;;;;;;;;;;;;13.17;100.00;98780.80;1708749;83;24606;-86
2022/09/06 04:49:18;;;;;;;;;;;;;;;13.23;100.00;98781.65;1705712;83;20356;-86
2022/09/06 04:51:47;;;;;;;;;;;;;;;13.12;100.00;98780.30;1706520;83;20364;-86
2022/09/06 04:54:13;;;;;;;;;;;;;;;13.16;100.00;98779.11;1706185;83;22036;-86
2022/09/06 04:56:42;;;;;;;;;;;;;;;13.21;100.00;98773.03;1706786;83;20995;-86
2022/09/06 04:59:08;;;;;;;;;;;;;;;13.30;100.00;98773.20;1706656;83;24417;-86
2022/09/06 05:01:34;;;;;;;;;;;;;;;13.20;100.00;98774.82;1705707;83;20817;-86
2022/09/06 05:04:00;;;;;;;;;;;;;;;13.06;100.00;98769.73;1708704;83;20771;-86
2022/09/06 05:06:26;;;;;;;;;;;;;;;12.91;100.00;98773.04;1708403;83;21015;-86
2022/09/06 05:08:55;;;;;;;;;;;;;;;12.80;100.00;98764.27;1707544;83;26747;-86
2022/09/06 05:11:21;;;;;;;;;;;;;;;12.77;100.00;98769.73;1707164;82;24470;-86
2022/09/06 05:13:49;;;;;;;;;;;;;;;12.92;100.00;98772.56;1708980;83;20338;-86
2022/09/06 05:16:15;;;;;;;;;;;;;;;13.06;100.00;98771.53;1706895;82;24664;-88
2022/09/06 05:18:41;;;;;;;;;;;;;;;13.13;100.00;98776.25;1709610;82;21949;-87
2022/09/06 05:21:07;;;;;;;;;;;;;;;13.17;100.00;98779.48;1706817;83;21032;-87
2022/09/06 05:23:36;;;;;;;;;;;;;;;13.22;100.00;98778.19;1707334;83;25151;-87
2022/09/06 05:26:02;;;;;;;;;;;;;;;13.26;100.00;98776.98;1709623;83;20208;-87
2022/09/06 05:28:28;;;;;;;;;;;;;;;13.28;100.00;98778.20;1706865;82;24800;-87
2022/09/06 05:30:56;;;;;;;;;;;;;;;13.32;100.00;98782.27;1707798;83;20895;-87
2022/09/06 05:33:24;;;;;;;;;;;;;;;13.46;100.00;98786.02;1705153;83;25981;-87
2022/09/06 05:35:50;;;;;;;;;;;;;;;13.59;100.00;98789.37;1708617;83;24479;-86
2022/09/06 05:38:16;;;;;;;;;;;;;;;13.68;100.00;98792.63;1707031;83;20324;-86
2022/09/06 05:40:42;;;;;;;;;;;;;;;13.70;100.00;98790.70;1707714;83;24796;-86
2022/09/06 05:43:08;;;;;;;;;;;;;;;13.69;100.00;98796.10;1705981;83;22011;-86
2022/09/06 05:45:38;;;;;;;;;;;;;;;13.61;100.00;98796.68;1708533;83;26032;-86
2022/09/06 05:48:04;;;;;;;;;;;;;;;13.53;100.00;98792.47;1708597;83;24753;-87
2022/09/06 05:50:30;;;;;;;;;;;;;;;13.50;100.00;98791.88;1704720;83;20331;-87
2022/09/06 05:52:56;;;;;;;;;;;;;;;13.47;100.00;98786.39;1703622;83;24880;-88
2022/09/06 05:55:22;;;;;;;;;;;;;;;13.33;100.00;98792.67;1709848;83;20357;-87
2022/09/06 05:57:49;;;;;;;;;;;;;;;13.21;100.00;98790.12;1703964;83;20957;-87
2022/09/06 06:00:15;;;;;;;;;;;;;;;13.25;100.00;98797.69;1712019;83;24389;-87
2022/09/06 06:02:41;;;;;;;;;;;;;;;13.36;100.00;98799.50;1707487;83;20277;-87
2022/09/06 06:05:07;;;;;;;;;;;;;;;13.43;100.00;98801.17;1707444;82;24892;-87
2022/09/06 06:07:39;;;;;;;;;;;;;;;13.49;100.00;98800.70;1705210;83;20836;-87
2022/09/06 06:10:05;;;;;;;;;;;;;;;13.52;100.00;98792.13;1706020;83;26021;-86
2022/09/06 06:12:31;;;;;;;;;;;;;;;13.54;100.00;98792.83;1709496;83;24552;-87
2022/09/06 06:14:57;;;;;;;;;;;;;;;13.55;100.00;98791.05;1710126;83;20254;-87
2022/09/06 06:17:23;;;;;;;;;;;;;;;13.58;100.00;98797.41;1709858;82;24847;-87
2022/09/06 06:19:50;;;;;;;;;;;;;;;13.49;100.00;98792.34;1727601;81;21952;-87
2022/09/06 06:22:15;;;;;;;;;;;;;;;13.43;100.00;98785.39;1742041;81;21004;-87
2022/09/06 06:24:41;;;;;;;;;;;;;;;13.38;100.00;98786.59;1721113;83;20264;-87
2022/09/06 06:27:07;;;;;;;;;;;;;;;13.37;100.00;98786.22;1735015;81;20553;-86
2022/09/06 06:29:34;;;;;;;;;;;;;;;13.49;100.00;98792.34;1716643;81;20741;-86
2022/09/06 06:32:00;;;;;;;;;;;;;;;13.56;100.00;98788.30;1718628;83;22014;-86
2022/09/06 06:34:33;;;;;;;;;;;;;;;13.61;100.00;98784.00;1735350;81;26600;-86
2022/09/06 06:36:59;;;;;;;;;;;;;;;13.64;100.00;98784.59;1719556;81;24596;-86
2022/09/06 06:39:29;;;;;;;;;;;;;;;13.62;100.00;98787.84;1718771;83;20148;-86
2022/09/06 06:41:55;;;;;;;;;;;;;;;13.60;100.00;98781.01;1717992;81;24859;-86
2022/09/06 06:44:22;;;;;;;;;;;;;;;13.62;100.00;98777.80;1740481;81;21961;-86
2022/09/06 06:46:47;;;;;;;;;;;;;;;13.64;100.00;98776.70;1719433;83;21058;-86
2022/09/06 06:49:18;;;;;;;;;;;;;;;13.68;100.00;98776.02;1737226;81;24665;-86
2022/09/06 06:51:48;;;;;;;;;;;;;;;13.71;100.00;98780.55;1741947;81;20277;-86
2022/09/06 06:54:19;;;;;;;;;;;;;;;13.76;100.00;98780.19;1729452;82;25505;-88
2022/09/06 06:56:46;;;;;;;;;;;;;;;13.78;100.00;98775.66;1730555;81;22077;-87
2022/09/06 06:59:12;;;;;;;;;;;;;;;13.76;100.00;98784.97;1728405;81;25923;-88
2022/09/06 07:01:38;;;;;;;;;;;;;;;13.75;100.00;98779.82;1725997;83;24436;-88
2022/09/06 07:04:11;;;;;;;;;;;;;;;13.85;100.00;98787.86;1725453;83;20168;-87
2022/09/06 07:06:50;;;;;;;;;;;;;;;13.93;100.00;98787.61;1727284;83;24736;-87
2022/09/06 07:09:17;;;;;;;;;;;;;;;14.00;100.00;98795.88;1726198;81;22590;-87
2022/09/06 07:11:47;;;;;;;;;;;;;;;14.10;100.00;98798.14;1721964;81;26127;-87
2022/09/06 07:14:14;;;;;;;;;;;;;;;14.19;100.00;98801.36;1706913;82;24450;-86
2022/09/06 07:16:41;;;;;;;;;;;;;;;14.18;100.00;98802.34;1723299;81;20227;-86
2022/09/06 07:19:13;;;;;;;;;;;;;;;14.21;100.00;98796.82;1727979;81;24760;-87
2022/09/06 07:21:39;;;;;;;;;;;;;;;14.23;100.00;98801.50;1724633;83;22101;-87
2022/09/06 07:24:09;;;;;;;;;;;;;;;14.23;100.00;98804.13;1742847;81;21091;-87
2022/09/06 07:26:35;;;;;;;;;;;;;;;14.28;100.00;98805.92;1717640;82;24483;-87
2022/09/06 07:29:08;;;;;;;;;;;;;;;14.34;100.00;98805.91;1741455;81;20219;-86
2022/09/06 07:31:34;;;;;;;;;;;;;;;14.38;100.00;98808.69;1722258;82;24768;-87
2022/09/06 07:34:00;;;;;;;;;;;;;;;14.44;100.00;98815.62;1737842;81;22074;-88
2022/09/06 07:36:26;;;;;;;;;;;;;;;14.49;100.00;98816.09;1740546;81;21191;-88
2022/09/06 07:38:53;;;;;;;;;;;;;;;14.57;100.00;98817.63;1718856;82;20414;-87
2022/09/06 07:41:20;;;;;;;;;;;;;;;14.71;100.00;98810.42;1742396;81;20570;-87
2022/09/06 07:43:49;;;;;;;;;;;;;;;14.87;100.00;98816.12;1720501;83;24744;-87
2022/09/06 07:46:16;;;;;;;;;;;;;;;14.92;100.00;98816.11;1712742;82;22624;-88
2022/09/06 07:48:43;;;;;;;;;;;;;;;14.91;100.00;98817.06;1720894;82;25511;-88
2022/09/06 07:51:12;;;;;;;;;;;;;;;14.88;100.00;98813.38;1713802;81;25029;-87
2022/09/06 07:53:43;;;;;;;;;;;;;;;14.92;100.00;98813.47;1739997;81;20207;-87
2022/09/06 07:56:15;;;;;;;;;;;;;;;14.96;100.00;98815.36;1716474;82;24293;-88
2022/09/06 07:58:52;;;;;;;;;;;;;;;14.99;100.00;98819.08;1735241;81;21979;-88
2022/09/06 08:01:19;;;;;;;;;;;;;;;15.05;100.00;98818.08;1742216;81;26022;-87
2022/09/06 08:03:51;;;;;;;;;;;;;;;15.10;100.00;98816.41;1737087;82;24402;-87
2022/09/06 08:06:18;;;;;;;;;;;;;;;15.15;100.00;98811.59;1721979;81;20487;-87
2022/09/06 08:08:45;;;;;;;;;;;;;;;15.29;100.00;98802.52;1719023;83;20247;-87
2022/09/06 08:11:11;;;;;;;;;;;;;;;15.40;100.00;98807.26;1721070;83;22131;-87
2022/09/06 08:13:37;;;;;;;;;;;;;;;15.46;100.00;98803.27;1735865;81;26005;-87
2022/09/06 08:16:10;;;;;;;;;;;;;;;15.51;100.00;98807.68;1711044;82;24641;-87
2022/09/06 08:18:37;;;;;;;;;;;;;;;15.59;100.00;98808.39;1727968;81;20490;-87
2022/09/06 08:21:10;;;;;;;;;;;;;;;15.71;100.00;98805.53;1731028;81;24845;-87
2022/09/06 08:23:47;;;;;;;;;;;;;;;15.81;100.00;98802.97;1722185;81;22721;-87
2022/09/06 08:26:15;;;;;;;;;;;;;;;15.91;100.00;98806.49;1718708;81;26008;-88
2022/09/06 08:28:42;;;;;;;;;;;;;;;16.03;100.00;98806.77;1726450;81;24497;-89
2022/09/06 08:31:12;;;;;;;;;;;;;;;16.14;100.00;98809.32;1723029;81;20660;-87
2022/09/06 08:33:39;;;;;;;;;;;;;;;16.26;100.00;98809.55;1723518;81;24915;-87
2022/09/06 08:36:06;;;;;;;;;;;;;;;16.41;100.00;98811.84;1722839;83;22006;-87
2022/09/06 08:38:32;;;;;;;;;;;;;;;16.50;100.00;98810.54;1725730;83;26063;-87
2022/09/06 08:41:08;;;;;;;;;;;;;;;16.61;100.00;98812.27;1725896;81;24382;-87
2022/09/06 08:43:35;;;;;;;;;;;;;;;16.67;100.00;98799.83;1722996;83;20486;-87
2022/09/06 08:46:03;;;;;;;;;;;;;;;16.81;100.00;98804.71;1723675;81;24816;-86
2022/09/06 08:48:30;;;;;;;;;;;;;;;16.88;100.00;98812.45;1724885;83;22145;-86
2022/09/06 08:51:07;;;;;;;;;;;;;;;17.02;100.00;98799.33;1723125;81;26654;-87
2022/09/06 08:53:35;;;;;;;;;;;;;;;17.20;100.00;98798.13;1725744;83;24493;-87
2022/09/06 08:56:08;;;;;;;;;;;;;;;17.36;100.00;98796.58;1719393;83;20171;-87
2022/09/06 08:58:35;;;;;;;;;;;;;;;17.31;100.00;98797.49;1724791;81;24732;-86
2022/09/06 09:01:03;;;;;;;;;;;;;;;17.31;100.00;98790.05;1721528;81;22067;-86
2022/09/06 09:03:35;;;;;;;;;;;;;;;17.31;100.00;98792.69;1723126;83;26021;-86
2022/09/06 09:06:09;;;;;;;;;;;;;;;17.22;100.00;98778.99;1724512;82;24515;-87
2022/09/06 09:08:49;;;;;;;;;;;;;;;17.18;100.00;98778.45;1727171;83;20240;-87
2022/09/06 09:11:17;;;;;;;;;;;;;;;17.14;100.00;98767.78;1724341;83;24889;-87
2022/09/06 09:13:50;;;;;;;;;;;;;;;17.15;100.00;98767.65;1725004;83;22078;-87
2022/09/06 09:16:16;;;;;;;;;;;;;;;17.17;100.00;98761.39;1723788;81;26091;-87
2022/09/06 09:18:44;;;;;;;;;;;;;;;17.15;100.00;98757.06;1721738;83;24428;-87
2022/09/06 09:21:10;;;;;;;;;;;;;;;17.18;100.00;98746.70;1724159;83;20307;-87
2022/09/06 09:23:36;;;;;;;;;;;;;;;17.22;100.00;98741.95;1724178;81;24769;-87
2022/09/06 09:26:04;;;;;;;;;;;;;;;17.34;100.00;98745.64;1722920;81;22061;-87
2022/09/06 09:28:30;;;;;;;;;;;;;;;17.44;100.00;98741.64;1721628;83;26072;-87
2022/09/06 09:30:57;;;;;;;;;;;;;;;17.53;100.00;98736.80;1725710;81;24430;-87
2022/09/06 09:33:31;;;;;;;;;;;;;;;17.68;100.00;98735.39;1722332;81;20145;-87
2022/09/06 09:36:00;;;;;;;;;;;;;;;17.84;100.00;98738.27;1718080;82;22222;-87
2022/09/06 09:38:33;;;;;;;;;;;;;;;17.90;100.00;98734.20;1724401;81;22102;-87
2022/09/06 09:41:06;;;;;;;;;;;;;;;17.98;100.00;98728.53;1729091;81;27005;-86
2022/09/06 09:43:43;;;;;;;;;;;;;;;17.98;100.00;98727.21;1725225;83;24621;-87
2022/09/06 09:46:17;;;;;;;;;;;;;;;18.08;100.00;98724.51;1727104;82;20231;-87
2022/09/06 09:48:45;;;;;;;;;;;;;;;18.14;100.00;98714.66;1722308;83;25438;-87
2022/09/06 09:51:13;;;;;;;;;;;;;;;18.19;100.00;98706.25;1708201;82;22051;-87
2022/09/06 09:53:41;;;;;;;;;;;;;;;18.35;100.00;98706.44;1717071;81;26047;-87
2022/09/06 09:56:07;;;;;;;;;;;;;;;18.47;100.00;98700.44;1716705;83;24674;-87
2022/09/06 09:58:34;;;;;;;;;;;;;;;18.57;100.00;98707.85;1727198;81;20225;-87
2022/09/06 10:01:13;;;;;;;;;;;;;;;18.60;100.00;98703.07;1724991;83;24203;-86
2022/09/06 10:03:39;;;;;;;;;;;;;;;18.51;100.00;98702.63;1714020;82;22067;-87
2022/09/06 10:06:07;;;;;;;;;;;;;;;18.48;100.00;98706.92;1720685;83;21129;-87
2022/09/06 10:08:42;;;;;;;;;;;;;;;18.40;100.00;98706.33;1723761;81;25237;-86
2022/09/06 10:11:12;;;;;;;;;;;;;;;18.27;100.00;98700.55;1728398;81;20224;-87
2022/09/06 10:13:40;;;;;;;;;;;;;;;18.21;100.00;98701.16;1723126;81;24888;-87
2022/09/06 10:16:06;;;;;;;;;;;;;;;18.18;100.00;98706.74;1729517;81;22015;-87
2022/09/06 10:18:34;;;;;;;;;;;;;;;18.16;100.00;98702.10;1726655;83;26251;-87
2022/09/06 10:21:08;;;;;;;;;;;;;;;18.14;100.00;98695.27;1726426;81;24388;-87
2022/09/06 10:23:37;;;;;;;;;;;;;;;18.17;100.00;98693.64;1727231;81;20201;-86
2022/09/06 10:26:22;;;;;;;;;;;;;;;18.15;100.00;98685.02;1720907;81;24733;-87
2022/09/06 10:28:52;;;;;;;;;;;;;;;18.11;100.00;98681.82;1725896;83;22030;-87
2022/09/06 10:31:36;;;;;;;;;;;;;;;18.16;100.00;98682.23;1741458;81;26720;-87
2022/09/06 10:34:07;;;;;;;;;;;;;;;18.25;100.00;98681.82;1719067;82;24522;-87
2022/09/06 10:36:35;;;;;;;;;;;;;;;18.36;100.00;98682.45;1737409;82;20224;-87
2022/09/06 10:39:11;;;;;;;;;;;;;;;18.44;100.00;98684.84;1742231;81;24813;-86
2022/09/06 10:41:46;;;;;;;;;;;;;;;18.52;100.00;98685.75;1729967;81;22265;-86
2022/09/06 10:44:26;;;;;;;;;;;;;;;18.66;100.00;98686.56;1720002;82;26001;-87
2022/09/06 10:46:54;;;;;;;;;;;;;;;18.83;100.00;98686.70;1725368;83;24591;-87
2022/09/06 10:49:20;;;;;;;;;;;;;;;18.89;100.00;98678.97;1715995;82;20277;-87
2022/09/06 10:51:53;;;;;;;;;;;;;;;18.93;100.00;98682.17;1720884;83;24855;-86
2022/09/06 10:54:25;;;;;;;;;;;;;;;18.97;100.00;98680.88;1741451;81;22017;-87
2022/09/06 10:56:53;;;;;;;;;;;;;;;18.99;100.00;98678.39;1737099;81;26038;-87
2022/09/06 10:59:38;;;;;;;;;;;;;;;19.07;100.00;98673.65;1717235;83;23877;-87
2022/09/06 11:02:22;;;;;;;;;;;;;;;19.14;100.00;98676.87;1743154;81;20179;-87
2022/09/06 11:04:52;;;;;;;;;;;;;;;19.18;100.00;98674.72;1730831;82;25475;-87
2022/09/06 11:07:30;;;;;;;;;;;;;;;19.18;100.00;98667.60;1723983;83;22059;-87
2022/09/06 11:10:07;;;;;;;;;;;;;;;19.20;100.00;98676.73;1726878;82;25537;-87
2022/09/06 11:12:41;;;;;;;;;;;;;;;19.20;100.00;98663.48;1725435;81;24475;-87
2022/09/06 11:15:09;;;;;;;;;;;;;;;19.30;100.00;98667.34;1724279;83;20219;-86
2022/09/06 11:17:46;;;;;;;;;;;;;;;19.35;100.00;98665.05;1727261;81;24822;-87
2022/09/06 11:20:36;;;;;;;;;;;;;;;19.25;100.00;98665.66;1720925;82;21986;-86
2022/09/06 11:23:08;;;;;;;;;;;;;;;19.21;100.00;98670.42;1724171;83;26066;-86
2022/09/06 11:25:45;;;;;;;;;;;;;;;19.21;100.00;98662.46;1711869;81;20477;-87
2022/09/06 11:28:13;;;;;;;;;;;;;;;19.25;100.00;98663.00;1734620;82;20385;-87
2022/09/06 11:30:40;;;;;;;;;;;;;;;19.24;100.00;98662.16;1743897;81;24815;-86
2022/09/06 11:33:08;;;;;;;;;;;;;;;19.19;100.00;98665.30;1700532;83;22096;-87
2022/09/06 11:35:35;;;;;;;;;;;;;;;19.17;100.00;98663.77;1702620;83;26109;-87
2022/09/06 11:38:06;;;;;;;;;;;;;;;19.19;100.00;98655.17;1701970;82;25273;-87
2022/09/06 11:40:36;;;;;;;;;;;;;;;19.28;100.00;98658.70;1702634;83;20235;-87
2022/09/06 11:43:06;;;;;;;;;;;;;;;19.38;100.00;98649.63;1701944;83;25341;-87
2022/09/06 11:45:46;;;;;;;;;;;;;;;19.44;100.00;98647.68;1701761;83;22737;-87
2022/09/06 11:48:32;;;;;;;;;;;;;;;19.48;100.00;98648.22;1701078;83;26052;-87
2022/09/06 11:50:59;;;;;;;;;;;;;;;19.49;100.00;98648.56;1700555;82;24549;-87
2022/09/06 11:53:32;;;;;;;;;;;;;;;19.49;100.00;98648.06;1701906;83;20213;-87
2022/09/06 11:56:01;;;;;;;;;;;;;;;19.52;100.00;98641.13;1702489;83;25336;-87
2022/09/06 11:58:32;;;;;;;;;;;;;;;19.55;100.00;98644.78;1703126;82;22805;-87
2022/09/06 12:01:17;;;;;;;;;;;;;;;19.56;100.00;98638.98;1702128;83;25994;-87
2022/09/06 12:04:00;;;;;;;;;;;;;;;19.57;100.00;98636.67;1701626;83;24603;-87
2022/09/06 12:06:28;;;;;;;;;;;;;;;19.54;100.00;98632.50;1700617;83;20415;-87
2022/09/06 12:08:58;;;;;;;;;;;;;;;19.54;100.00;98632.50;1701156;83;25576;-87
2022/09/06 12:11:25;;;;;;;;;;;;;;;19.58;100.00;98636.48;1702334;83;22075;-87
2022/09/06 12:14:03;;;;;;;;;;;;;;;19.62;100.00;98625.08;1702314;82;26913;-87
2022/09/06 12:19:35;;;;;;;;;;;;;;;19.79;100.00;98624.65;1702206;82;20208;-87
2022/09/06 12:22:24;;;;;;;;;;;;;;;19.86;100.00;98626.48;1701126;83;24848;-87
2022/09/06 12:24:52;;;;;;;;;;;;;;;19.90;100.00;98626.52;1701820;83;22006;-87
2022/09/06 12:27:22;;;;;;;;;;;;;;;19.95;100.00;98627.36;1692373;83;21419;-86
2022/09/06 12:29:57;;;;;;;;;;;;;;;19.98;100.00;98623.88;1701744;83;25285;-86
2022/09/06 12:32:28;;;;;;;;;;;;;;;20.01;100.00;98620.07;1700412;83;20248;-87
2022/09/06 12:34:57;;;;;;;;;;;;;;;20.06;100.00;98617.76;1698595;83;24752;-87
2022/09/06 12:37:31;;;;;;;;;;;;;;;20.16;100.00;98611.80;1700939;83;22179;-87
2022/09/06 12:42:47;;;;;;;;;;;;;;;20.27;100.00;98602.67;1625985;87;24621;-86
2022/09/06 12:45:13;;;;;;;;;;;;;;;20.28;100.00;98599.03;1627820;87;20261;-87
2022/09/06 12:47:39;;;;;;;;;;;;;;;20.30;100.00;98599.18;1627680;87;24726;-86
2022/09/06 12:50:10;;;;;;;;;;;;;;;20.28;100.00;98586.58;1627832;87;21989;-87
2022/09/06 12:52:56;;;;;;;;;;;;;;;20.31;100.00;98593.38;1627791;87;26076;-87
2022/09/06 12:55:29;;;;;;;;;;;;;;;20.31;100.00;98594.23;1627542;86;24523;-87
2022/09/06 12:58:09;;;;;;;;;;;;;;;20.29;100.00;98600.17;1652323;85;20706;-87